createdAt,value
2022-12-26T00:00:47.572Z,9.30
2022-12-26T00:01:47.574Z,9.30
2022-12-26T00:02:47.543Z,9.28
2022-12-26T00:03:47.671Z,9.27
2022-12-26T00:04:49.675Z,9.28
2022-12-26T00:05:47.549Z,9.28
2022-12-26T00:06:47.432Z,9.30
2022-12-26T00:07:47.424Z,9.28
2022-12-26T00:08:47.450Z,9.28
2022-12-26T00:09:47.446Z,9.27
2022-12-26T00:10:47.379Z,9.28
2022-12-26T00:11:47.510Z,9.31
2022-12-26T00:12:47.400Z,9.27
2022-12-26T00:13:47.412Z,9.31
2022-12-26T00:14:47.339Z,9.25
2022-12-26T00:15:47.329Z,9.25
2022-12-26T00:16:47.440Z,9.27
2022-12-26T00:17:47.360Z,9.27
2022-12-26T00:18:47.301Z,9.27
2022-12-26T00:19:47.281Z,9.27
2022-12-26T00:20:47.280Z,9.27
2022-12-26T00:21:47.291Z,9.28
2022-12-26T00:22:47.249Z,9.30
2022-12-26T00:23:47.297Z,9.27
2022-12-26T00:24:47.279Z,9.30
2022-12-26T00:25:47.245Z,9.25
2022-12-26T00:26:47.221Z,9.27
2022-12-26T00:27:47.204Z,9.28
2022-12-26T00:28:47.326Z,9.27
2022-12-26T00:29:47.196Z,9.27
2022-12-26T00:30:47.358Z,9.28
2022-12-26T00:31:47.255Z,9.25
2022-12-26T00:32:47.153Z,9.30
2022-12-26T00:33:47.167Z,9.25
2022-12-26T00:34:47.190Z,9.25
2022-12-26T00:35:47.137Z,9.27
2022-12-26T00:36:47.112Z,9.24
2022-12-26T00:37:47.097Z,9.25
2022-12-26T00:38:47.100Z,9.24
2022-12-26T00:39:47.118Z,9.23
2022-12-26T00:40:47.084Z,9.24
2022-12-26T00:41:47.055Z,9.21
2022-12-26T00:42:47.295Z,9.20
2022-12-26T00:43:47.043Z,9.20
2022-12-26T00:44:47.039Z,9.24
2022-12-26T00:45:47.095Z,9.21
2022-12-26T00:46:47.135Z,9.24
2022-12-26T00:47:47.050Z,9.24
2022-12-26T00:48:47.004Z,9.23
2022-12-26T00:50:11.779Z,9.21
2022-12-26T00:50:46.976Z,9.24
2022-12-26T00:51:46.968Z,9.21
2022-12-26T00:52:46.896Z,9.21
2022-12-26T00:53:47.092Z,9.21
2022-12-26T00:54:47.072Z,9.23
2022-12-26T00:55:46.912Z,9.20
2022-12-26T00:56:46.953Z,9.24
2022-12-26T00:57:46.883Z,9.25
2022-12-26T00:58:46.937Z,9.21
2022-12-26T00:59:46.871Z,9.25
2022-12-26T01:00:46.991Z,9.25
2022-12-26T01:01:47.141Z,9.25
2022-12-26T01:02:47.118Z,9.25
2022-12-26T01:03:46.840Z,9.25
2022-12-26T01:04:46.893Z,9.27
2022-12-26T01:05:46.866Z,9.25
2022-12-26T01:06:46.819Z,9.23
2022-12-26T01:08:19.613Z,9.24
2022-12-26T01:08:46.781Z,9.24
2022-12-26T01:09:46.822Z,9.24
2022-12-26T01:10:46.824Z,9.23
2022-12-26T01:11:46.806Z,9.21
2022-12-26T01:12:46.755Z,9.23
2022-12-26T01:13:46.745Z,9.21
2022-12-26T01:14:46.718Z,9.23
2022-12-26T01:15:46.728Z,9.21
2022-12-26T01:16:46.927Z,9.23
2022-12-26T01:17:46.686Z,9.20
2022-12-26T01:18:46.691Z,9.20
2022-12-26T01:19:46.679Z,9.16
2022-12-26T01:20:46.663Z,9.18
2022-12-26T01:21:46.684Z,9.18
2022-12-26T01:22:46.634Z,9.16
2022-12-26T01:23:46.681Z,9.16
2022-12-26T01:24:46.618Z,9.18
2022-12-26T01:26:18.263Z,9.18
2022-12-26T01:26:46.609Z,9.13
2022-12-26T01:27:46.583Z,9.15
2022-12-26T01:28:46.594Z,9.13
2022-12-26T01:29:46.620Z,9.13
2022-12-26T01:30:46.575Z,9.13
2022-12-26T01:31:46.594Z,9.15
2022-12-26T01:32:46.511Z,9.12
2022-12-26T01:33:46.578Z,9.12
2022-12-26T01:34:46.530Z,9.13
2022-12-26T01:35:46.582Z,9.12
2022-12-26T01:36:46.514Z,9.15
2022-12-26T01:37:46.585Z,9.12
2022-12-26T01:38:46.480Z,9.09
2022-12-26T01:39:46.516Z,9.10
2022-12-26T01:40:46.503Z,9.06
2022-12-26T01:41:46.458Z,9.09
2022-12-26T01:42:46.439Z,9.09
2022-12-26T01:43:46.444Z,9.06
2022-12-26T01:44:46.546Z,9.04
2022-12-26T01:45:46.418Z,9.05
2022-12-26T01:46:46.399Z,9.04
2022-12-26T01:47:46.426Z,9.04
2022-12-26T01:48:46.404Z,9.04
2022-12-26T01:49:46.373Z,9.02
2022-12-26T01:50:46.362Z,9.01
2022-12-26T01:51:46.386Z,9.01
2022-12-26T01:52:46.379Z,9.01
2022-12-26T01:53:46.354Z,9.01
2022-12-26T01:54:46.330Z,9.04
2022-12-26T01:55:46.343Z,9.01
2022-12-26T01:56:46.368Z,9.02
2022-12-26T01:57:46.297Z,9.04
2022-12-26T01:58:46.337Z,9.04
2022-12-26T01:59:46.387Z,9.05
2022-12-26T02:00:46.294Z,9.05
2022-12-26T02:01:46.436Z,9.06
2022-12-26T02:02:46.299Z,9.05
2022-12-26T02:03:46.286Z,9.05
2022-12-26T02:04:46.284Z,9.06
2022-12-26T02:05:46.238Z,9.10
2022-12-26T02:06:46.185Z,9.09
2022-12-26T02:07:46.211Z,9.06
2022-12-26T02:08:46.159Z,9.10
2022-12-26T02:09:46.223Z,9.12
2022-12-26T02:10:46.177Z,9.12
2022-12-26T02:11:46.214Z,9.13
2022-12-26T02:12:46.145Z,9.13
2022-12-26T02:13:46.139Z,9.15
2022-12-26T02:14:46.116Z,9.15
2022-12-26T02:15:46.113Z,9.13
2022-12-26T02:16:46.144Z,9.09
2022-12-26T02:17:46.145Z,9.12
2022-12-26T02:18:46.083Z,9.13
2022-12-26T02:19:46.133Z,9.13
2022-12-26T02:20:46.056Z,9.13
2022-12-26T02:21:46.099Z,9.13
2022-12-26T02:22:46.005Z,9.13
2022-12-26T02:23:46.066Z,9.15
2022-12-26T02:24:46.101Z,9.16
2022-12-26T02:25:45.993Z,9.20
2022-12-26T02:26:45.993Z,9.13
2022-12-26T02:27:46.040Z,9.18
2022-12-26T02:28:46.059Z,9.20
2022-12-26T02:29:45.968Z,9.18
2022-12-26T02:30:45.981Z,9.21
2022-12-26T02:31:46.051Z,9.23
2022-12-26T02:32:45.935Z,9.24
2022-12-26T02:33:45.919Z,9.23
2022-12-26T02:34:45.971Z,9.24
2022-12-26T02:35:45.923Z,9.20
2022-12-26T02:36:45.939Z,9.23
2022-12-26T02:37:45.912Z,9.21
2022-12-26T02:38:45.876Z,9.16
2022-12-26T02:39:46.819Z,9.15
2022-12-26T02:40:45.841Z,9.15
2022-12-26T02:41:45.816Z,9.15
2022-12-26T02:42:45.863Z,9.15
2022-12-26T02:43:45.886Z,9.15
2022-12-26T02:44:45.944Z,9.16
2022-12-26T02:45:45.809Z,9.13
2022-12-26T02:46:45.769Z,9.12
2022-12-26T02:47:45.959Z,9.12
2022-12-26T02:48:57.107Z,9.12
2022-12-26T02:49:45.832Z,9.12
2022-12-26T02:50:45.829Z,9.15
2022-12-26T02:51:45.828Z,9.12
2022-12-26T02:52:45.765Z,9.13
2022-12-26T02:53:45.726Z,9.13
2022-12-26T02:54:45.724Z,9.15
2022-12-26T02:55:45.707Z,9.13
2022-12-26T02:56:45.760Z,9.16
2022-12-26T02:57:45.740Z,9.15
2022-12-26T02:58:45.680Z,9.16
2022-12-26T02:59:55.865Z,9.15
2022-12-26T03:00:45.691Z,9.15
2022-12-26T03:01:45.781Z,9.16
2022-12-26T03:02:45.889Z,9.16
2022-12-26T03:03:45.616Z,9.15
2022-12-26T03:04:45.642Z,9.18
2022-12-26T03:05:45.614Z,9.16
2022-12-26T03:06:45.559Z,9.18
2022-12-26T03:07:45.669Z,9.15
2022-12-26T03:08:45.582Z,9.20
2022-12-26T03:09:45.617Z,9.20
2022-12-26T03:10:45.583Z,9.16
2022-12-26T03:11:45.503Z,9.16
2022-12-26T03:12:45.572Z,9.16
2022-12-26T03:13:45.603Z,9.13
2022-12-26T03:14:45.536Z,9.13
2022-12-26T03:15:45.617Z,9.12
2022-12-26T03:16:45.513Z,9.13
2022-12-26T03:17:45.446Z,9.10
2022-12-26T03:18:59.411Z,9.12
2022-12-26T03:19:45.536Z,9.10
2022-12-26T03:20:45.480Z,9.10
2022-12-26T03:21:45.474Z,9.10
2022-12-26T03:22:45.395Z,9.06
2022-12-26T03:23:45.401Z,9.12
2022-12-26T03:24:45.448Z,9.06
2022-12-26T03:25:45.407Z,9.09
2022-12-26T03:26:45.413Z,9.09
2022-12-26T03:27:45.400Z,9.05
2022-12-26T03:28:45.402Z,9.05
2022-12-26T03:29:45.398Z,9.06
2022-12-26T03:30:45.391Z,9.04
2022-12-26T03:31:45.369Z,9.04
2022-12-26T03:32:45.343Z,9.06
2022-12-26T03:33:45.287Z,9.10
2022-12-26T03:34:45.344Z,9.10
2022-12-26T03:35:45.356Z,9.06
2022-12-26T03:36:45.246Z,9.10
2022-12-26T03:37:48.404Z,9.06
2022-12-26T03:38:45.271Z,9.02
2022-12-26T03:39:45.282Z,9.04
2022-12-26T03:40:45.303Z,9.04
2022-12-26T03:41:45.350Z,9.06
2022-12-26T03:42:45.262Z,9.05
2022-12-26T03:43:45.220Z,9.10
2022-12-26T03:44:47.319Z,9.05
2022-12-26T03:45:45.196Z,9.06
2022-12-26T03:46:45.158Z,9.04
2022-12-26T03:47:45.147Z,9.05
2022-12-26T03:48:45.174Z,9.06
2022-12-26T03:49:45.142Z,9.09
2022-12-26T03:50:45.133Z,9.09
2022-12-26T03:51:45.064Z,9.10
2022-12-26T03:52:45.164Z,9.06
2022-12-26T03:53:45.082Z,9.05
2022-12-26T03:54:45.087Z,9.02
2022-12-26T03:55:45.097Z,9.04
2022-12-26T03:56:45.091Z,9.06
2022-12-26T03:57:45.112Z,9.05
2022-12-26T03:58:45.055Z,9.09
2022-12-26T03:59:45.176Z,9.02
2022-12-26T04:00:45.006Z,9.04
2022-12-26T04:01:45.265Z,9.04
2022-12-26T04:02:45.046Z,9.04
2022-12-26T04:03:55.216Z,9.01
2022-12-26T04:04:44.988Z,9.01
2022-12-26T04:05:45.002Z,8.97
2022-12-26T04:06:44.946Z,8.99
2022-12-26T04:07:56.605Z,8.96
2022-12-26T04:08:44.925Z,8.97
2022-12-26T04:09:44.937Z,8.97
2022-12-26T04:10:44.925Z,8.96
2022-12-26T04:11:44.977Z,8.96
2022-12-26T04:12:44.897Z,8.99
2022-12-26T04:13:44.909Z,8.94
2022-12-26T04:14:44.947Z,8.94
2022-12-26T04:15:44.913Z,8.97
2022-12-26T04:16:44.905Z,8.94
2022-12-26T04:17:44.927Z,8.90
2022-12-26T04:18:44.920Z,8.88
2022-12-26T04:19:44.870Z,8.90
2022-12-26T04:20:44.831Z,8.88
2022-12-26T04:21:44.883Z,8.88
2022-12-26T04:22:44.847Z,8.87
2022-12-26T04:23:44.862Z,8.87
2022-12-26T04:24:44.782Z,8.87
2022-12-26T04:25:48.806Z,8.88
2022-12-26T04:26:44.787Z,8.86
2022-12-26T04:27:44.774Z,8.86
2022-12-26T04:28:44.786Z,8.93
2022-12-26T04:29:44.722Z,8.91
2022-12-26T04:30:44.765Z,8.91
2022-12-26T04:31:44.735Z,8.93
2022-12-26T04:32:44.676Z,8.91
2022-12-26T04:33:44.787Z,8.93
2022-12-26T04:34:44.672Z,8.96
2022-12-26T04:35:44.653Z,8.96
2022-12-26T04:36:44.676Z,8.96
2022-12-26T04:37:44.633Z,8.96
2022-12-26T04:38:44.605Z,8.97
2022-12-26T04:39:44.633Z,8.97
2022-12-26T04:40:44.613Z,8.99
2022-12-26T04:41:44.640Z,8.97
2022-12-26T04:42:44.569Z,9.01
2022-12-26T04:43:49.348Z,8.94
2022-12-26T04:44:44.661Z,8.97
2022-12-26T04:45:44.550Z,8.93
2022-12-26T04:46:44.640Z,8.88
2022-12-26T04:47:44.594Z,8.87
2022-12-26T04:48:44.575Z,8.84
2022-12-26T04:49:44.535Z,8.79
2022-12-26T04:50:44.497Z,8.76
2022-12-26T04:51:44.555Z,8.75
2022-12-26T04:52:44.498Z,8.73
2022-12-26T04:53:46.325Z,8.73
2022-12-26T04:54:44.517Z,8.71
2022-12-26T04:55:44.488Z,8.69
2022-12-26T04:56:44.445Z,8.69
2022-12-26T04:57:44.413Z,8.73
2022-12-26T04:58:44.400Z,8.69
2022-12-26T04:59:44.408Z,8.69
2022-12-26T05:00:44.415Z,8.68
2022-12-26T05:01:44.588Z,8.69
2022-12-26T05:02:44.591Z,8.68
2022-12-26T05:03:44.407Z,8.68
2022-12-26T05:04:44.412Z,8.69
2022-12-26T05:05:44.403Z,8.71
2022-12-26T05:06:44.490Z,8.71
2022-12-26T05:07:44.484Z,8.71
2022-12-26T05:08:44.342Z,8.71
2022-12-26T05:09:44.383Z,8.71
2022-12-26T05:10:44.519Z,8.72
2022-12-26T05:11:44.296Z,8.72
2022-12-26T05:12:44.275Z,8.69
2022-12-26T05:13:44.268Z,8.69
2022-12-26T05:14:44.231Z,8.72
2022-12-26T05:15:44.421Z,8.71
2022-12-26T05:16:44.225Z,8.75
2022-12-26T05:17:44.189Z,8.75
2022-12-26T05:18:44.200Z,8.71
2022-12-26T05:19:44.183Z,8.73
2022-12-26T05:20:44.166Z,8.75
2022-12-26T05:21:44.174Z,8.75
2022-12-26T05:22:44.128Z,8.76
2022-12-26T05:23:44.144Z,8.73
2022-12-26T05:24:44.114Z,8.73
2022-12-26T05:25:44.125Z,8.75
2022-12-26T05:26:44.140Z,8.78
2022-12-26T05:27:44.111Z,8.79
2022-12-26T05:28:44.065Z,8.78
2022-12-26T05:29:44.069Z,8.78
2022-12-26T05:30:44.219Z,8.73
2022-12-26T05:31:44.162Z,8.73
2022-12-26T05:32:44.066Z,8.73
2022-12-26T05:33:44.054Z,8.72
2022-12-26T05:34:44.018Z,8.75
2022-12-26T05:35:44.022Z,8.73
2022-12-26T05:36:44.017Z,8.73
2022-12-26T05:37:44.012Z,8.71
2022-12-26T05:38:44.007Z,8.73
2022-12-26T05:39:43.972Z,8.78
2022-12-26T05:40:43.958Z,8.75
2022-12-26T05:41:43.946Z,8.78
2022-12-26T05:42:43.943Z,8.73
2022-12-26T05:43:43.934Z,8.76
2022-12-26T05:44:43.928Z,8.79
2022-12-26T05:58:13.631Z,8.84
2022-12-26T05:59:14.599Z,8.86
2022-12-26T06:00:14.573Z,8.84
2022-12-26T06:01:14.704Z,8.84
2022-12-26T06:02:14.760Z,8.84
2022-12-26T06:03:14.664Z,8.79
2022-12-26T06:04:14.479Z,8.78
2022-12-26T06:05:14.476Z,8.73
2022-12-26T06:06:14.446Z,8.75
2022-12-26T06:07:14.432Z,8.73
2022-12-26T06:08:14.419Z,8.71
2022-12-26T06:09:14.414Z,8.66
2022-12-26T06:10:14.416Z,8.63
2022-12-26T06:11:14.390Z,8.63
2022-12-26T06:12:14.373Z,8.65
2022-12-26T06:13:14.390Z,8.63
2022-12-26T06:14:14.356Z,8.58
2022-12-26T06:15:14.345Z,8.62
2022-12-26T06:16:14.499Z,8.58
2022-12-26T06:17:14.399Z,8.60
2022-12-26T06:18:14.314Z,8.54
2022-12-26T06:19:14.336Z,8.53
2022-12-26T06:20:14.291Z,8.53
2022-12-26T06:21:14.311Z,8.54
2022-12-26T06:22:14.297Z,8.51
2022-12-26T06:23:14.267Z,8.47
2022-12-26T06:24:14.271Z,8.47
2022-12-26T06:25:14.267Z,8.47
2022-12-26T06:26:14.244Z,8.47
2022-12-26T06:27:14.236Z,8.45
2022-12-26T06:28:14.218Z,8.44
2022-12-26T06:29:14.219Z,8.40
2022-12-26T06:30:14.196Z,8.40
2022-12-26T06:31:14.212Z,8.44
2022-12-26T06:32:14.172Z,8.39
2022-12-26T06:33:14.161Z,8.44
2022-12-26T06:34:14.153Z,8.40
2022-12-26T06:35:14.163Z,8.45
2022-12-26T06:36:14.166Z,8.42
2022-12-26T06:37:14.150Z,8.42
2022-12-26T06:38:14.153Z,8.40
2022-12-26T06:39:14.100Z,8.39
2022-12-26T06:40:14.099Z,8.40
2022-12-26T06:41:14.120Z,8.39
2022-12-26T06:42:14.100Z,8.36
2022-12-26T06:43:14.077Z,8.37
2022-12-26T06:44:18.125Z,8.33
2022-12-26T06:45:14.047Z,8.32
2022-12-26T06:46:14.089Z,8.30
2022-12-26T06:47:14.173Z,8.29
2022-12-26T06:48:13.997Z,8.30
2022-12-26T06:49:14.010Z,8.32
2022-12-26T06:50:13.992Z,8.29
2022-12-26T06:51:13.973Z,8.28
2022-12-26T06:52:13.999Z,8.29
2022-12-26T06:53:13.953Z,8.35
2022-12-26T06:54:13.929Z,8.33
2022-12-26T06:55:14.009Z,8.33
2022-12-26T06:56:13.960Z,8.33
2022-12-26T07:02:19.285Z,8.39
2022-12-26T07:03:20.159Z,8.40
2022-12-26T07:04:20.134Z,8.39
2022-12-26T07:05:20.128Z,8.33
2022-12-26T07:06:20.843Z,8.37
2022-12-26T07:07:20.127Z,8.37
2022-12-26T07:08:19.990Z,8.33
2022-12-26T07:09:20.022Z,8.32
2022-12-26T07:10:19.978Z,8.30
2022-12-26T07:11:19.973Z,8.30
2022-12-26T07:12:19.960Z,8.32
2022-12-26T07:13:19.940Z,8.32
2022-12-26T07:14:19.923Z,8.35
2022-12-26T07:15:19.925Z,8.37
2022-12-26T07:16:19.956Z,8.35
2022-12-26T07:17:19.904Z,8.36
2022-12-26T07:18:19.915Z,8.36
2022-12-26T07:19:19.901Z,8.35
2022-12-26T07:20:27.421Z,8.33
2022-12-26T07:21:19.868Z,8.32
2022-12-26T07:22:20.008Z,8.35
2022-12-26T07:23:19.962Z,8.36
2022-12-26T07:24:19.827Z,8.33
2022-12-26T07:25:19.828Z,8.33
2022-12-26T07:26:19.802Z,8.33
2022-12-26T07:27:19.804Z,8.32
2022-12-26T07:28:19.792Z,8.30
2022-12-26T07:29:19.784Z,8.29
2022-12-26T07:30:19.766Z,8.28
2022-12-26T07:31:19.904Z,8.29
2022-12-26T07:32:19.721Z,8.29
2022-12-26T07:33:19.739Z,8.26
2022-12-26T07:34:19.733Z,8.25
2022-12-26T07:35:19.710Z,8.26
2022-12-26T07:36:19.686Z,8.25
2022-12-26T07:37:19.681Z,8.28
2022-12-26T07:38:19.673Z,8.30
2022-12-26T07:39:19.686Z,8.28
2022-12-26T07:40:19.639Z,8.29
2022-12-26T07:41:19.671Z,8.28
2022-12-26T07:42:19.627Z,8.25
2022-12-26T07:43:19.617Z,8.26
2022-12-26T07:44:19.628Z,8.26
2022-12-26T07:45:19.598Z,8.26
2022-12-26T07:46:19.645Z,8.28
2022-12-26T07:47:19.587Z,8.29
2022-12-26T07:48:19.578Z,8.26
2022-12-26T07:49:19.576Z,8.22
2022-12-26T08:28:49.840Z,8.83
2022-12-26T08:29:53.646Z,8.84
2022-12-26T08:30:50.642Z,8.86
2022-12-26T08:31:50.594Z,8.84
2022-12-26T08:32:50.594Z,8.83
2022-12-26T08:33:50.651Z,8.81
2022-12-26T08:34:50.590Z,8.79
2022-12-26T08:35:50.558Z,8.78
2022-12-26T08:36:50.557Z,8.76
2022-12-26T08:37:50.536Z,8.76
2022-12-26T08:38:50.519Z,8.76
2022-12-26T08:39:50.496Z,8.75
2022-12-26T08:40:50.524Z,8.76
2022-12-26T08:41:50.496Z,8.79
2022-12-26T08:43:12.200Z,8.78
2022-12-26T08:44:25.793Z,8.79
2022-12-26T08:44:50.474Z,8.76
2022-12-26T08:45:50.436Z,8.79
2022-12-26T08:46:50.439Z,8.78
2022-12-26T08:47:50.430Z,8.84
2022-12-26T08:48:50.426Z,8.84
2022-12-26T08:49:50.413Z,8.86
2022-12-26T08:50:50.395Z,8.86
2022-12-26T08:51:50.381Z,8.83
2022-12-26T08:52:50.403Z,8.90
2022-12-26T08:53:50.357Z,8.87
2022-12-26T08:54:50.372Z,8.88
2022-12-26T08:55:50.334Z,8.87
2022-12-26T08:56:50.339Z,8.86
2022-12-26T08:57:50.313Z,8.87
2022-12-26T08:58:50.329Z,8.86
2022-12-26T08:59:50.310Z,8.86
2022-12-26T09:00:55.026Z,8.88
2022-12-26T09:01:50.392Z,8.88
2022-12-26T09:02:50.364Z,8.93
2022-12-26T09:03:50.258Z,8.93
2022-12-26T09:04:50.268Z,8.94
2022-12-26T09:05:50.247Z,8.91
2022-12-26T09:06:50.224Z,8.88
2022-12-26T09:07:50.221Z,8.88
2022-12-26T09:08:50.210Z,8.87
2022-12-26T09:09:50.215Z,8.86
2022-12-26T09:10:50.193Z,8.86
2022-12-26T09:11:50.160Z,8.79
2022-12-26T09:12:50.173Z,8.86
2022-12-26T09:13:50.152Z,8.81
2022-12-26T09:14:50.432Z,8.79
2022-12-26T09:15:50.125Z,8.81
2022-12-26T09:16:51.331Z,8.87
2022-12-26T09:17:50.142Z,8.87
2022-12-26T09:18:50.117Z,8.87
2022-12-26T09:19:50.097Z,8.87
2022-12-26T09:20:50.101Z,8.86
2022-12-26T09:21:50.068Z,8.84
2022-12-26T09:22:50.056Z,8.87
2022-12-26T09:23:50.059Z,8.86
2022-12-26T09:24:50.121Z,8.84
2022-12-26T09:25:50.038Z,8.81
2022-12-26T09:26:50.014Z,8.83
2022-12-26T09:27:53.009Z,8.83
2022-12-26T09:28:50.016Z,8.79
2022-12-26T09:29:49.997Z,8.84
2022-12-26T09:30:50.015Z,8.79
2022-12-26T09:31:49.961Z,8.83
2022-12-26T09:32:50.026Z,8.84
2022-12-26T09:33:49.958Z,8.83
2022-12-26T09:34:49.966Z,8.88
2022-12-26T09:35:49.908Z,8.93
2022-12-26T09:36:49.926Z,8.97
2022-12-26T09:37:49.972Z,8.97
2022-12-26T09:38:49.888Z,8.96
2022-12-26T09:39:49.881Z,8.97
2022-12-26T09:40:49.918Z,9.01
2022-12-26T09:41:49.861Z,8.99
2022-12-26T09:42:49.854Z,8.97
2022-12-26T09:43:50.423Z,8.99
2022-12-26T09:44:49.852Z,9.02
2022-12-26T09:45:49.839Z,9.05
2022-12-26T09:46:49.800Z,9.04
2022-12-26T09:47:49.852Z,9.13
2022-12-26T09:48:49.799Z,9.16
2022-12-26T09:49:49.804Z,9.20
2022-12-26T09:50:49.762Z,9.24
2022-12-26T09:51:49.784Z,9.24
2022-12-26T09:52:49.779Z,9.27
2022-12-26T09:53:49.724Z,9.28
2022-12-26T09:54:49.738Z,9.35
2022-12-26T09:55:49.696Z,9.42
2022-12-26T09:57:11.266Z,9.48
2022-12-26T09:57:49.732Z,9.50
2022-12-26T09:58:49.678Z,9.49
2022-12-26T09:59:49.660Z,9.48
2022-12-26T10:00:49.666Z,9.48
2022-12-26T10:01:49.771Z,9.46
2022-12-26T10:02:49.653Z,9.42
2022-12-26T10:03:49.624Z,9.40
2022-12-26T10:04:49.664Z,9.42
2022-12-26T10:05:49.615Z,9.45
2022-12-26T10:06:49.599Z,9.49
2022-12-26T10:07:49.593Z,9.49
2022-12-26T10:08:49.594Z,9.52
2022-12-26T10:09:49.585Z,9.57
2022-12-26T10:10:49.544Z,9.56
2022-12-26T10:11:49.549Z,9.56
2022-12-26T10:12:49.577Z,9.57
2022-12-26T10:13:49.526Z,9.52
2022-12-26T10:14:49.522Z,9.53
2022-12-26T10:15:49.658Z,9.53
2022-12-26T10:16:49.516Z,9.56
2022-12-26T10:17:49.491Z,9.53
2022-12-26T10:18:49.509Z,9.50
2022-12-26T10:19:49.472Z,9.48
2022-12-26T10:20:49.455Z,9.48
2022-12-26T10:21:49.445Z,9.43
2022-12-26T10:22:49.461Z,9.45
2022-12-26T10:23:49.431Z,9.43
2022-12-26T10:24:49.423Z,9.48
2022-12-26T10:25:49.405Z,9.46
2022-12-26T10:26:49.395Z,9.46
2022-12-26T10:27:49.362Z,9.46
2022-12-26T10:28:49.393Z,9.45
2022-12-26T10:29:49.343Z,9.48
2022-12-26T10:30:49.384Z,9.46
2022-12-26T10:31:49.442Z,9.48
2022-12-26T10:32:49.337Z,9.49
2022-12-26T10:33:49.316Z,9.46
2022-12-26T10:34:49.321Z,9.46
2022-12-26T10:35:49.335Z,9.46
2022-12-26T10:36:49.287Z,9.48
2022-12-26T10:37:49.311Z,9.45
2022-12-26T10:38:49.262Z,9.43
2022-12-26T10:39:49.257Z,9.42
2022-12-26T10:40:49.257Z,9.43
2022-12-26T10:41:49.235Z,9.48
2022-12-26T10:42:49.232Z,9.50
2022-12-26T10:43:49.204Z,9.50
2022-12-26T10:44:49.198Z,9.53
2022-12-26T10:45:49.191Z,9.53
2022-12-26T10:46:49.227Z,9.52
2022-12-26T10:47:49.195Z,9.57
2022-12-26T10:48:49.199Z,9.58
2022-12-26T10:49:49.157Z,9.61
2022-12-26T10:50:49.150Z,9.66
2022-12-26T10:51:49.123Z,9.70
2022-12-26T10:52:49.160Z,9.78
2022-12-26T10:53:49.100Z,9.82
2022-12-26T10:54:49.104Z,9.82
2022-12-26T10:55:49.137Z,9.85
2022-12-26T10:56:49.082Z,9.89
2022-12-26T10:57:49.057Z,9.96
2022-12-26T10:58:49.089Z,9.96
2022-12-26T10:59:49.061Z,9.93
2022-12-26T11:00:49.040Z,9.94
2022-12-26T11:03:11.665Z,9.97
2022-12-26T11:04:12.684Z,9.99
2022-12-26T11:05:22.021Z,10.04
2022-12-26T11:06:12.547Z,10.06
2022-12-26T11:07:12.478Z,10.06
2022-12-26T11:08:12.450Z,10.09
2022-12-26T11:09:12.471Z,10.04
2022-12-26T11:10:12.422Z,10.09
2022-12-26T11:11:12.400Z,10.09
2022-12-26T11:12:12.452Z,10.06
2022-12-26T11:13:12.371Z,10.04
2022-12-26T11:14:12.455Z,10.00
2022-12-26T11:15:12.354Z,9.99
2022-12-26T11:16:12.409Z,9.96
2022-12-26T11:17:12.370Z,9.88
2022-12-26T11:18:12.336Z,9.83
2022-12-26T11:19:12.366Z,9.82
2022-12-26T11:20:12.334Z,9.82
2022-12-26T11:21:12.921Z,9.78
2022-12-26T11:22:12.346Z,9.78
2022-12-26T11:23:12.315Z,9.70
2022-12-26T11:24:12.284Z,9.71
2022-12-26T11:25:12.261Z,9.70
2022-12-26T11:26:12.259Z,9.64
2022-12-26T11:27:12.932Z,9.63
2022-12-26T11:28:12.284Z,9.57
2022-12-26T11:29:12.220Z,9.53
2022-12-26T11:30:12.243Z,9.56
2022-12-26T11:31:12.242Z,9.50
2022-12-26T11:32:12.197Z,9.50
2022-12-26T11:33:14.873Z,9.49
2022-12-26T11:34:12.204Z,9.45
2022-12-26T11:35:12.163Z,9.46
2022-12-26T11:36:12.152Z,9.38
2022-12-26T11:37:12.207Z,9.40
2022-12-26T11:38:12.124Z,9.42
2022-12-26T11:39:12.119Z,9.39
2022-12-26T11:40:12.145Z,9.39
2022-12-26T11:41:12.106Z,9.39
2022-12-26T11:42:12.100Z,9.39
2022-12-26T11:43:12.067Z,9.32
2022-12-26T11:44:12.224Z,9.38
2022-12-26T11:45:12.060Z,9.38
2022-12-26T11:46:12.080Z,9.38
2022-12-26T11:47:12.050Z,9.34
2022-12-26T11:48:12.036Z,9.38
2022-12-26T11:49:12.017Z,9.32
2022-12-26T11:50:12.064Z,9.28
2022-12-26T11:51:11.994Z,9.28
2022-12-26T11:52:11.983Z,9.30
2022-12-26T11:53:11.983Z,9.25
2022-12-26T11:54:11.953Z,9.27
2022-12-26T11:55:11.957Z,9.20
2022-12-26T11:56:11.948Z,9.21
2022-12-26T11:57:11.932Z,9.16
2022-12-26T11:58:11.924Z,9.12
2022-12-26T11:59:11.939Z,9.10
2022-12-26T12:00:11.930Z,9.01
2022-12-26T12:01:11.931Z,9.01
2022-12-26T12:02:11.932Z,8.99
2022-12-26T12:03:11.934Z,8.93
2022-12-26T12:04:11.924Z,8.97
2022-12-26T12:06:50.335Z,8.91
2022-12-26T12:07:51.590Z,8.91
2022-12-26T12:08:51.345Z,8.90
2022-12-26T12:09:51.296Z,8.93
2022-12-26T12:10:51.273Z,8.90
2022-12-26T12:11:51.306Z,8.93
2022-12-26T12:12:51.248Z,8.93
2022-12-26T12:13:51.240Z,8.86
2022-12-26T12:14:54.739Z,8.90
2022-12-26T12:15:51.277Z,8.93
2022-12-26T12:16:51.257Z,8.90
2022-12-26T12:17:51.211Z,8.87
2022-12-26T12:18:51.198Z,8.86
2022-12-26T12:19:51.169Z,8.84
2022-12-26T12:20:52.130Z,8.83
2022-12-26T12:21:51.162Z,8.83
2022-12-26T12:22:51.162Z,8.83
2022-12-26T12:23:51.142Z,8.83
2022-12-26T12:24:51.128Z,8.81
2022-12-26T12:25:51.119Z,8.83
2022-12-26T12:26:57.562Z,8.87
2022-12-26T12:27:51.116Z,8.84
2022-12-26T12:28:51.117Z,8.78
2022-12-26T12:29:51.080Z,8.76
2022-12-26T12:30:51.103Z,8.78
2022-12-26T12:31:51.081Z,8.81
2022-12-26T12:32:56.863Z,8.83
2022-12-26T12:33:51.054Z,8.86
2022-12-26T12:34:51.027Z,8.84
2022-12-26T12:35:51.009Z,8.84
2022-12-26T12:36:51.058Z,8.84
2022-12-26T12:37:50.995Z,8.79
2022-12-26T12:38:54.865Z,8.76
2022-12-26T12:39:51.000Z,8.76
2022-12-26T12:40:50.967Z,8.71
2022-12-26T12:41:50.954Z,8.47
2022-12-26T12:42:50.983Z,8.25
2022-12-26T12:43:50.930Z,8.15
2022-12-26T12:44:55.539Z,8.03
2022-12-26T12:45:50.974Z,8.00
2022-12-26T12:46:50.909Z,7.96
2022-12-26T12:47:51.294Z,8.08
2022-12-26T12:48:50.884Z,8.03
2022-12-26T12:49:50.938Z,8.03
2022-12-26T12:50:56.830Z,7.78
2022-12-26T12:51:50.863Z,7.75
2022-12-26T12:52:50.883Z,7.82
2022-12-26T12:53:50.835Z,7.79
2022-12-26T12:54:50.829Z,7.72
2022-12-26T12:55:50.812Z,7.78
2022-12-26T12:56:50.831Z,7.79
2022-12-26T12:57:50.853Z,7.79
2022-12-26T12:58:50.810Z,7.75
2022-12-26T12:59:50.768Z,7.79
2022-12-26T13:00:50.928Z,7.71
2022-12-26T13:01:51.031Z,7.45
2022-12-26T13:02:51.672Z,7.41
2022-12-26T13:03:51.816Z,7.38
2022-12-26T13:04:50.737Z,7.38
2022-12-26T13:05:50.708Z,7.41
2022-12-26T13:06:50.719Z,7.49
2022-12-26T13:07:50.738Z,7.63
2022-12-26T13:08:50.703Z,7.74
2022-12-26T13:09:50.678Z,7.71
2022-12-26T13:10:50.677Z,7.62
2022-12-26T13:11:50.784Z,7.62
2022-12-26T13:12:50.659Z,7.63
2022-12-26T13:15:36.242Z,7.50
2022-12-26T13:16:37.621Z,7.49
2022-12-26T13:17:37.391Z,7.29
2022-12-26T13:18:37.185Z,7.13
2022-12-26T13:19:37.176Z,7.05
2022-12-26T13:20:37.284Z,6.94
2022-12-26T13:21:37.220Z,6.97
2022-12-26T13:22:37.159Z,7.01
2022-12-26T13:23:37.136Z,7.05
2022-12-26T13:24:37.112Z,7.19
2022-12-26T13:25:37.136Z,7.27
2022-12-26T13:26:37.094Z,7.32
2022-12-26T13:27:37.091Z,7.29
2022-12-26T13:28:37.055Z,7.31
2022-12-26T13:29:37.797Z,7.38
2022-12-26T13:30:37.049Z,7.27
2022-12-26T13:31:37.111Z,7.27
2022-12-26T13:32:41.931Z,7.34
2022-12-26T13:33:37.040Z,7.31
2022-12-26T13:34:37.929Z,7.27
2022-12-26T13:35:36.995Z,7.34
2022-12-26T13:36:37.034Z,7.40
2022-12-26T13:37:36.995Z,7.35
2022-12-26T13:38:36.990Z,7.29
2022-12-26T13:39:37.001Z,7.34
2022-12-26T13:40:36.958Z,7.37
2022-12-26T13:41:37.056Z,7.45
2022-12-26T13:42:36.934Z,7.47
2022-12-26T13:43:36.980Z,7.41
2022-12-26T13:44:37.016Z,7.41
2022-12-26T13:45:36.975Z,7.42
2022-12-26T13:46:36.883Z,7.45
2022-12-26T13:47:36.926Z,7.37
2022-12-26T13:48:36.875Z,7.37
2022-12-26T13:49:36.900Z,7.34
2022-12-26T13:50:36.927Z,7.29
2022-12-26T13:51:36.831Z,7.32
2022-12-26T13:52:36.848Z,7.27
2022-12-26T13:53:36.870Z,7.29
2022-12-26T13:54:39.292Z,7.27
2022-12-26T13:55:36.952Z,7.26
2022-12-26T13:56:39.723Z,7.23
2022-12-26T13:57:36.810Z,7.23
2022-12-26T13:58:36.747Z,7.23
2022-12-26T13:59:36.795Z,7.19
2022-12-26T14:00:36.734Z,7.23
2022-12-26T14:01:36.807Z,7.24
2022-12-26T14:02:58.687Z,7.32
2022-12-26T14:03:37.124Z,7.26
2022-12-26T14:04:36.744Z,7.29
2022-12-26T14:05:36.690Z,7.31
2022-12-26T14:06:36.666Z,7.27
2022-12-26T14:07:36.646Z,7.26
2022-12-26T14:08:36.685Z,7.24
2022-12-26T14:09:36.656Z,7.26
2022-12-26T14:10:36.647Z,7.32
2022-12-26T14:11:36.639Z,7.29
2022-12-26T14:12:36.585Z,7.32
2022-12-26T14:13:36.650Z,7.27
2022-12-26T14:14:36.575Z,7.31
2022-12-26T14:15:36.586Z,7.26
2022-12-26T14:16:36.619Z,7.24
2022-12-26T14:17:36.543Z,7.24
2022-12-26T14:18:36.527Z,7.31
2022-12-26T14:19:36.537Z,7.35